Garnett Industrial Airport (K68)
Garnett, KS
Field Elevation: 989
Lat: 38°16.64N  Long: 95°12.91W
CTAF/Unicom Freq: 122.8000
   
     For Weather-by-Phone, call 785-448-3254
Weather Advisories
4/19/2014 17:06 Z
Altimeter 30.17" Hg
Wind 190° @ 12 KT
Gusts 17 KT
Visibility 10 SM
Temperature 22° C (72° F)
Dewpoint 8° C (46° F)
Relative Humidity 40%
Density Altitude --
Condensation Altitude 8,200 feet
  Wind and Runways
Indicated Runway = 19
History
 
 
More Info
All DigiWx sites map
NOAA Forecast
 
Airport IQ 5010
(FLV) Sherman Airfield
(GRE) Greenville
 
about DigiWx
 
FAA Disclaimer: The data displayed is for advisory purposes only and is not to be used for flight planning or operations. For official data, please call 785-448-3254 to hear the current automated AWOS voice message.
  METAR K68 191706Z AUTO 19012G17KT 10SM 22/08 A3017